Labinsk, Russia
Current Conditions -  °F | °C
As of 6:00 PM on Friday 24 Oct 2014 (Local Time) from URMT Reporting Station
Haze Haze  
Wind Chill: 22°   Ceiling: 400
Heat Index: 30°   Visibility: 2.5mi
Dew Point: 30°   Wind: 9mph
Humidity: 100%   Direction: 100°E
Pressure: 30.15"   Gusts: 16mph
Location:  44.63°N, 40.74°E
Report Text: URMT 241500Z 10004G07MPS 4000 BR VV004 M01/M01 Q1021 NOSIG RMKQBB130 QFE725 SC060
Loading
Personal Weather Stations






























Interactive Weather Map
Tropical Storm Tracking
New forecast layout! Learn more

10-Day Weather Forecast

Advertisements
Track Severe Weather on mobile